July 5, 2022

Time Code Weather Temp. Visibility Ceiling Wind METAR/SPECI
8:00 pm
V
70 °F 6¼ mi+ 5,000 ft 140° 140° 8 kt METAR FIMP 051600Z 14008KT 9999 SCT016 BKN050 21/14 Q1022
7:00 pm
V
70 °F 6¼ mi+ 5,000 ft 120° 120° 10 kt METAR FIMP 051500Z 12010KT 9999 SCT015 BKN050 21/14 Q1022
6:00 pm
V
72 °F 6¼ mi+ 5,000 ft 130° 130° 10 kt METAR FIMP 051400Z 13010KT 9999 FEW016 BKN050 22/13 Q1022
5:00 pm
V
72 °F 6¼ mi+ 5,000 ft 130° 130° 8 kt METAR FIMP 051300Z 13008KT 9999 FEW016 BKN050 22/13 Q1022
4:00 pm
V
72 °F 6¼ mi+ 5,000 ft 110° 110° 13 kt METAR FIMP 051200Z 11013KT 9999 VCSH SCT015 BKN050 22/15 Q1021
3:00 pm
V
73 °F 6¼ mi+ 5,000 ft 110° 110° 10 kt METAR FIMP 051100Z 11010KT 9999 VCSH SCT016 BKN050 23/14 Q1021
2:00 pm
V
75 °F 6¼ mi+ 5,000 ft 120° 120° 10 kt METAR FIMP 051000Z 12010KT 9999 SCT016 BKN050 24/14 Q1022
1:00 pm
M
73 °F 6¼ mi+ 1,600 ft 120° 120° 8 kt METAR FIMP 050900Z 12008KT 9999 BKN016 SCT050 23/16 Q1022
12:00 pm
V
73 °F 6¼ mi+ - 120° 120° 13 kt METAR FIMP 050800Z 12013KT 9999 SCT017 23/15 Q1022
11:00 am
V
73 °F 6¼ mi+ - 110° 110° 11 kt METAR FIMP 050700Z 11011KT 9999 SCT017 23/16 Q1023
10:00 am
V
73 °F 6¼ mi+ - 110° 110° 14 kt METAR FIMP 050600Z 11014KT 9999 VCSH SCT015 SCT050 23/16 Q1023
9:00 am
V
72 °F 6¼ mi+ 5,000 ft 120° 120° 9 kt METAR FIMP 050500Z 12009KT 9999 VCSH SCT015 BKN050 22/18 Q1023
8:00 am
V
70 °F 6¼ mi+ 5,000 ft 110° 110° 10 - 20 kt METAR FIMP 050400Z 11010G20KT 9999 VCSH FEW015 BKN050 21/16 Q1023
7:00 am
V
68 °F 5 mi - 120° 120° 10 kt METAR FIMP 050300Z 12010KT 8000 VCSH SCT015 SCT050 20/17 Q1022
6:00 am
V
68 °F 6¼ mi+ - 110° 110° 11 kt METAR FIMP 050200Z 11011KT 9999 SCT016 SCT050 20/17 Q1022
5:00 am
V
68 °F 6¼ mi+ - 120° 120° 9 kt METAR FIMP 050100Z 12009KT 9999 SCT016 SCT050 20/17 Q1022
4:00 am
V
70 °F 6¼ mi+ - 110° 110° 13 kt METAR FIMP 050000Z 11013KT 9999 SCT016 SCT050 21/17 Q1022
3:00 am
V
68 °F 6¼ mi+ - 130° 130° 8 kt METAR FIMP 042300Z 13008KT 9999 SCT016 SCT050 20/17 Q1023
2:00 am
M
66 °F 6¼ mi+ 1,600 ft 040° 040° 4 kt METAR FIMP 042200Z 04004KT 9999 BKN016 SCT050 19/17 Q1023
1:00 am
V
70 °F 6¼ mi+ - 110° 110° 11 kt METAR FIMP 042100Z 11011KT 9999 SCT016 21/16 Q1024
12:00 am
V
70 °F 6¼ mi+ 5,000 ft 110° 110° 14 kt METAR FIMP 042000Z 11014KT 9999 SCT016 BKN050 21/16 Q1024

July 4, 2022

Time Code Weather Temp. Visibility Ceiling Wind METAR/SPECI
11:00 pm
M
70 °F 6¼ mi+ 1,600 ft 120° 120° 11 kt METAR FIMP 041900Z 12011KT 9999 BKN016 SCT050 21/16 Q1024
10:00 pm
V
68 °F 6¼ mi+ - 110° 110° 14 kt METAR FIMP 041800Z 11014KT 9999 VCSH SCT015 SCT050 20/17 Q1024
9:00 pm
V
68 °F 6¼ mi+ - 110° 110° 9 kt METAR FIMP 041700Z 11009KT 9999 FEW016 20/16 Q1024
8:00 pm
V
68 °F 6¼ mi+ - 140° 140° 10 kt METAR FIMP 041600Z 14010KT 9999 FEW015 SCT050 20/17 Q1023
7:00 pm
L
68 °F 0 mi - 070° 070° 17 kt METAR FIMP 041500Z 07017KT 3000NW -SHRA SCT015 SCT050 20/18 Q1024
6:00 pm
M
70 °F 3⅛ mi 1,600 ft 100° 100° 7 kt METAR FIMP 041400Z 10007KT 5000 VCSH BKN016 SCT050 21/18 Q1023
5:00 pm
V
72 °F 5 mi - 100° 100° 10 kt METAR FIMP 041300Z 10010KT 8000 VCSH SCT016 SCT050 22/17 Q1023
4:00 pm
V
72 °F 6¼ mi+ - 120° 120° 12 kt METAR FIMP 041200Z 12012KT 9999 VCSH SCT016 SCT050 22/15 Q1023
3:00 pm
V
70 °F 5 mi 5,000 ft 090° 090° 10 kt METAR FIMP 041100Z 09010KT 8000 VCSH FEW010 SCT016 BKN050 21/16 Q1024
2:00 pm
V
73 °F 6¼ mi+ - 130° 130° 10 kt METAR FIMP 041000Z 13010KT 9999 VCSH SCT016 SCT050 23/18 Q1024
1:00 pm
V
75 °F 6¼ mi+ - 100° 100° 14 kt METAR FIMP 040900Z 10014KT 9999 VCSH FEW016 SCT050 24/15 Q1024
12:00 pm
V
73 °F 6¼ mi+ - 110° 110° 14 kt METAR FIMP 040800Z 11014KT 9999 VCSH SCT016 SCT050 23/15 Q1025
11:00 am
V
72 °F 5 mi 5,000 ft 080° 080° 11 kt METAR FIMP 040700Z 08011KT 8000 VCSH FEW010 SCT016 BKN050 22/17 Q1025
10:00 am
V
72 °F 6¼ mi+ 5,000 ft 100° 100° 16 kt METAR FIMP 040600Z 10016KT 9999 VCSH SCT016 BKN050 22/14 Q1026
9:00 am
V
70 °F 5 mi 5,000 ft 080° 080° 12 kt METAR FIMP 040500Z 08012KT 8000 VCSH FEW010 SCT015 BKN050 21/17 Q1025
8:00 am
V
72 °F 6¼ mi+ 5,000 ft 090° 090° 15 kt METAR FIMP 040400Z 09015KT 9999 VCSH SCT016 BKN050 22/14 Q1025
7:00 am
V
68 °F 5 mi 5,000 ft 110° 110° 12 kt METAR FIMP 040300Z 11012KT 8000 VCSH SCT016 BKN050 20/14 Q1024
6:00 am
V
68 °F 5 mi 5,000 ft 110° 110° 15 kt METAR FIMP 040200Z 11015KT 8000 VCSH SCT017 BKN050 20/15 Q1024
5:00 am
M
70 °F 6¼ mi+ 1,800 ft 110° 110° 14 kt METAR FIMP 040100Z 11014KT 9999 BKN018 21/13 Q1024
4:00 am
V
70 °F 6¼ mi+ - 120° 120° 15 kt METAR FIMP 040000Z 12015KT 9999 SCT018 21/14 Q1024
3:00 am
V
70 °F 6¼ mi+ - 110° 110° 12 kt METAR FIMP 032300Z 11012KT 9999 SCT017 21/15 Q1025
2:00 am
V
72 °F 6¼ mi+ - 110° 110° 16 kt METAR FIMP 032200Z 11016KT 9999 SCT017 22/16 Q1025
1:00 am
V
72 °F 6¼ mi+ - 120° 120° 17 - 28 kt METAR FIMP 032100Z 12017G28KT 9999 SCT016 22/16 Q1024
12:00 am
M
72 °F 6¼ mi+ 1,400 ft 120° 120° 15 kt METAR FIMP 032000Z 12015KT 9999 VCSH BKN014 SCT050 22/17 Q1024

July 3, 2022

Time Code Weather Temp. Visibility Ceiling Wind METAR/SPECI
11:00 pm
V
70 °F 5 mi - 120° 120° 15 kt METAR FIMP 031900Z 12015KT 8000 VCSH SCT013 SCT050 21/18 Q1024
10:00 pm
L
70 °F 0 mi 5,000 ft 120° 120° 15 kt METAR FIMP 031800Z 12015KT 4000NW 8000E VCSH FEW006 SCT012 BKN050 21/19 Q1025
9:00 pm
L
70 °F 0 mi 1,400 ft 120° 120° 13 kt METAR FIMP 031700Z 12013KT 2000NW 8000S -SHRA FEW007 BKN014 21/19 Q1025
8:00 pm
V
68 °F 6¼ mi+ - 120° 120° 12 kt METAR FIMP 031600Z 12012KT 9999 VCSH SCT015 SCT050 20/19 Q1024
7:00 pm
V
70 °F 5 mi - 120° 120° 13 kt METAR FIMP 031500Z 12013KT 8000 VCSH FEW010 SCT013 21/19 Q1024
Older data

Download our app

Easy access to all aviation weather on your mobile phone and tablet.
With many features not available on the website, like offline support and a personal airport list.

We and third parties follow your internet behavior on our website with cookies. If you continue, we assume you agree with our cookie policy. Learn more